sensor_id;sensor_type;location;lat;lon;timestamp;P1;durP1;ratioP1;P2;durP2;ratioP2
982;SDS011;480;48.124;11.578;2022-08-30T00:00:06;8.67;;;7.40;;
982;SDS011;480;48.124;11.578;2022-08-30T00:02:53;9.97;;;7.23;;
982;SDS011;480;48.124;11.578;2022-08-30T00:05:20;8.63;;;7.83;;
982;SDS011;480;48.124;11.578;2022-08-30T00:07:49;8.80;;;7.93;;
982;SDS011;480;48.124;11.578;2022-08-30T00:10:16;8.00;;;7.30;;
982;SDS011;480;48.124;11.578;2022-08-30T00:12:43;8.80;;;8.00;;
982;SDS011;480;48.124;11.578;2022-08-30T00:15:12;8.40;;;7.70;;
982;SDS011;480;48.124;11.578;2022-08-30T00:17:40;7.93;;;7.13;;
982;SDS011;480;48.124;11.578;2022-08-30T00:20:10;8.83;;;7.90;;
982;SDS011;480;48.124;11.578;2022-08-30T00:22:39;8.20;;;7.50;;
982;SDS011;480;48.124;11.578;2022-08-30T00:25:08;8.87;;;7.37;;
982;SDS011;480;48.124;11.578;2022-08-30T00:27:36;9.07;;;8.20;;
982;SDS011;480;48.124;11.578;2022-08-30T00:30:04;8.43;;;7.63;;
982;SDS011;480;48.124;11.578;2022-08-30T00:32:32;7.40;;;6.73;;
982;SDS011;480;48.124;11.578;2022-08-30T00:34:59;8.67;;;7.83;;
982;SDS011;480;48.124;11.578;2022-08-30T00:37:27;8.13;;;7.40;;
982;SDS011;480;48.124;11.578;2022-08-30T00:39:54;8.73;;;7.53;;
982;SDS011;480;48.124;11.578;2022-08-30T00:42:22;9.30;;;7.27;;
982;SDS011;480;48.124;11.578;2022-08-30T00:44:50;7.53;;;6.83;;
982;SDS011;480;48.124;11.578;2022-08-30T00:47:18;8.30;;;7.60;;
982;SDS011;480;48.124;11.578;2022-08-30T00:49:45;8.70;;;6.97;;
982;SDS011;480;48.124;11.578;2022-08-30T00:52:17;8.00;;;7.17;;
982;SDS011;480;48.124;11.578;2022-08-30T00:54:45;8.40;;;7.70;;
982;SDS011;480;48.124;11.578;2022-08-30T00:57:13;7.57;;;6.50;;
982;SDS011;480;48.124;11.578;2022-08-30T00:59:42;7.97;;;7.27;;
982;SDS011;480;48.124;11.578;2022-08-30T01:02:12;7.30;;;6.60;;
982;SDS011;480;48.124;11.578;2022-08-30T01:04:41;8.40;;;7.73;;
982;SDS011;480;48.124;11.578;2022-08-30T01:07:09;8.50;;;7.70;;
982;SDS011;480;48.124;11.578;2022-08-30T01:09:36;8.50;;;7.70;;
982;SDS011;480;48.124;11.578;2022-08-30T01:12:04;8.47;;;7.10;;
982;SDS011;480;48.124;11.578;2022-08-30T01:14:32;8.87;;;6.60;;
982;SDS011;480;48.124;11.578;2022-08-30T01:17:00;7.50;;;6.73;;
982;SDS011;480;48.124;11.578;2022-08-30T01:19:30;9.23;;;7.73;;
982;SDS011;480;48.124;11.578;2022-08-30T01:22:04;8.87;;;7.90;;
982;SDS011;480;48.124;11.578;2022-08-30T01:24:38;9.17;;;8.20;;
982;SDS011;480;48.124;11.578;2022-08-30T01:27:05;8.33;;;7.17;;
982;SDS011;480;48.124;11.578;2022-08-30T01:29:32;8.67;;;7.87;;
982;SDS011;480;48.124;11.578;2022-08-30T01:31:59;8.23;;;7.43;;
982;SDS011;480;48.124;11.578;2022-08-30T01:34:27;8.00;;;7.20;;
982;SDS011;480;48.124;11.578;2022-08-30T01:36:54;8.97;;;8.00;;
982;SDS011;480;48.124;11.578;2022-08-30T01:39:21;7.17;;;6.20;;
982;SDS011;480;48.124;11.578;2022-08-30T01:41:49;11.63;;;7.80;;
982;SDS011;480;48.124;11.578;2022-08-30T01:44:16;8.13;;;7.40;;
982;SDS011;480;48.124;11.578;2022-08-30T01:46:45;10.17;;;8.67;;
982;SDS011;480;48.124;11.578;2022-08-30T01:49:14;9.40;;;8.37;;
982;SDS011;480;48.124;11.578;2022-08-30T01:51:44;10.90;;;6.93;;
982;SDS011;480;48.124;11.578;2022-08-30T01:54:11;8.43;;;7.57;;
982;SDS011;480;48.124;11.578;2022-08-30T01:56:38;7.50;;;6.80;;
982;SDS011;480;48.124;11.578;2022-08-30T01:59:07;8.73;;;7.87;;
982;SDS011;480;48.124;11.578;2022-08-30T02:01:34;9.30;;;8.40;;
982;SDS011;480;48.124;11.578;2022-08-30T02:04:04;8.60;;;7.73;;
982;SDS011;480;48.124;11.578;2022-08-30T02:06:32;14.00;;;8.90;;
982;SDS011;480;48.124;11.578;2022-08-30T02:08:59;10.23;;;8.63;;
982;SDS011;480;48.124;11.578;2022-08-30T02:11:27;10.23;;;8.03;;
982;SDS011;480;48.124;11.578;2022-08-30T02:13:54;10.23;;;7.80;;
982;SDS011;480;48.124;11.578;2022-08-30T02:16:22;7.70;;;7.00;;
982;SDS011;480;48.124;11.578;2022-08-30T02:18:50;10.20;;;7.90;;
982;SDS011;480;48.124;11.578;2022-08-30T02:21:18;7.73;;;6.93;;
982;SDS011;480;48.124;11.578;2022-08-30T02:23:46;7.53;;;6.73;;
982;SDS011;480;48.124;11.578;2022-08-30T02:26:13;7.63;;;6.97;;
982;SDS011;480;48.124;11.578;2022-08-30T02:28:41;7.83;;;7.13;;
982;SDS011;480;48.124;11.578;2022-08-30T02:31:08;8.07;;;7.03;;
982;SDS011;480;48.124;11.578;2022-08-30T02:33:36;7.97;;;7.00;;
982;SDS011;480;48.124;11.578;2022-08-30T02:36:04;7.70;;;6.90;;
982;SDS011;480;48.124;11.578;2022-08-30T02:38:32;8.73;;;7.83;;
982;SDS011;480;48.124;11.578;2022-08-30T02:40:59;7.40;;;6.80;;
982;SDS011;480;48.124;11.578;2022-08-30T02:43:26;8.40;;;7.60;;
982;SDS011;480;48.124;11.578;2022-08-30T02:45:53;8.93;;;8.03;;
982;SDS011;480;48.124;11.578;2022-08-30T02:48:20;6.40;;;5.80;;
982;SDS011;480;48.124;11.578;2022-08-30T02:50:49;8.10;;;6.87;;
982;SDS011;480;48.124;11.578;2022-08-30T02:53:18;7.30;;;6.60;;
982;SDS011;480;48.124;11.578;2022-08-30T02:55:46;8.17;;;7.37;;
982;SDS011;480;48.124;11.578;2022-08-30T02:58:14;8.47;;;7.63;;
982;SDS011;480;48.124;11.578;2022-08-30T03:00:41;7.73;;;7.13;;
982;SDS011;480;48.124;11.578;2022-08-30T03:03:09;7.77;;;7.07;;
982;SDS011;480;48.124;11.578;2022-08-30T03:05:36;7.00;;;6.30;;
982;SDS011;480;48.124;11.578;2022-08-30T03:08:05;10.37;;;8.10;;
982;SDS011;480;48.124;11.578;2022-08-30T03:10:32;8.63;;;7.90;;
982;SDS011;480;48.124;11.578;2022-08-30T03:13:00;7.60;;;6.30;;
982;SDS011;480;48.124;11.578;2022-08-30T03:15:29;8.27;;;7.47;;
982;SDS011;480;48.124;11.578;2022-08-30T03:17:56;7.40;;;6.70;;
982;SDS011;480;48.124;11.578;2022-08-30T03:20:24;9.47;;;7.10;;
982;SDS011;480;48.124;11.578;2022-08-30T03:22:51;7.00;;;6.30;;
982;SDS011;480;48.124;11.578;2022-08-30T03:25:19;7.37;;;6.67;;
982;SDS011;480;48.124;11.578;2022-08-30T03:27:47;7.47;;;6.77;;
982;SDS011;480;48.124;11.578;2022-08-30T03:30:14;8.13;;;7.33;;
982;SDS011;480;48.124;11.578;2022-08-30T03:32:43;7.97;;;6.90;;
982;SDS011;480;48.124;11.578;2022-08-30T03:35:10;7.60;;;6.90;;
982;SDS011;480;48.124;11.578;2022-08-30T03:37:39;7.63;;;7.00;;
982;SDS011;480;48.124;11.578;2022-08-30T03:40:06;6.83;;;6.23;;
982;SDS011;480;48.124;11.578;2022-08-30T03:42:36;6.80;;;6.30;;
982;SDS011;480;48.124;11.578;2022-08-30T03:45:03;7.97;;;7.27;;
982;SDS011;480;48.124;11.578;2022-08-30T03:47:31;7.37;;;6.70;;
982;SDS011;480;48.124;11.578;2022-08-30T03:49:59;7.47;;;6.73;;
982;SDS011;480;48.124;11.578;2022-08-30T03:52:26;9.00;;;7.47;;
982;SDS011;480;48.124;11.578;2022-08-30T03:54:53;7.47;;;6.70;;
982;SDS011;480;48.124;11.578;2022-08-30T03:57:20;8.13;;;7.40;;
982;SDS011;480;48.124;11.578;2022-08-30T03:59:49;6.90;;;6.27;;
982;SDS011;480;48.124;11.578;2022-08-30T04:02:16;6.97;;;6.27;;
982;SDS011;480;48.124;11.578;2022-08-30T04:04:43;7.00;;;6.30;;
982;SDS011;480;48.124;11.578;2022-08-30T04:07:10;7.80;;;6.20;;
982;SDS011;480;48.124;11.578;2022-08-30T04:09:37;7.03;;;6.37;;
982;SDS011;480;48.124;11.578;2022-08-30T04:12:04;8.77;;;7.40;;
982;SDS011;480;48.124;11.578;2022-08-30T04:14:31;7.37;;;6.63;;
982;SDS011;480;48.124;11.578;2022-08-30T04:17:00;7.13;;;6.43;;
982;SDS011;480;48.124;11.578;2022-08-30T04:19:29;7.53;;;6.83;;
982;SDS011;480;48.124;11.578;2022-08-30T04:21:57;8.10;;;7.37;;
982;SDS011;480;48.124;11.578;2022-08-30T04:24:24;9.30;;;7.00;;
982;SDS011;480;48.124;11.578;2022-08-30T04:26:54;8.23;;;7.43;;
982;SDS011;480;48.124;11.578;2022-08-30T04:29:21;7.47;;;6.77;;
982;SDS011;480;48.124;11.578;2022-08-30T04:31:48;7.00;;;6.40;;
982;SDS011;480;48.124;11.578;2022-08-30T04:34:17;7.93;;;7.13;;
982;SDS011;480;48.124;11.578;2022-08-30T04:36:44;6.73;;;6.13;;
982;SDS011;480;48.124;11.578;2022-08-30T04:39:13;9.40;;;7.63;;
982;SDS011;480;48.124;11.578;2022-08-30T04:41:40;7.20;;;5.83;;
982;SDS011;480;48.124;11.578;2022-08-30T04:44:07;6.80;;;6.20;;
982;SDS011;480;48.124;11.578;2022-08-30T04:46:34;7.10;;;6.43;;
982;SDS011;480;48.124;11.578;2022-08-30T04:49:02;7.60;;;6.67;;
982;SDS011;480;48.124;11.578;2022-08-30T04:51:31;8.50;;;6.53;;
982;SDS011;480;48.124;11.578;2022-08-30T04:53:58;8.40;;;7.60;;
982;SDS011;480;48.124;11.578;2022-08-30T04:56:25;7.90;;;6.70;;
982;SDS011;480;48.124;11.578;2022-08-30T04:58:53;7.33;;;6.23;;
982;SDS011;480;48.124;11.578;2022-08-30T05:01:21;8.03;;;6.60;;
982;SDS011;480;48.124;11.578;2022-08-30T05:03:51;7.87;;;7.17;;
982;SDS011;480;48.124;11.578;2022-08-30T05:06:19;6.67;;;6.07;;
982;SDS011;480;48.124;11.578;2022-08-30T05:08:49;7.60;;;6.40;;
982;SDS011;480;48.124;11.578;2022-08-30T05:11:17;8.27;;;7.40;;
982;SDS011;480;48.124;11.578;2022-08-30T05:13:44;7.70;;;7.00;;
982;SDS011;480;48.124;11.578;2022-08-30T05:16:12;6.53;;;5.93;;
982;SDS011;480;48.124;11.578;2022-08-30T05:18:44;7.73;;;7.03;;
982;SDS011;480;48.124;11.578;2022-08-30T05:21:13;7.40;;;6.70;;
982;SDS011;480;48.124;11.578;2022-08-30T05:23:41;8.50;;;7.70;;
982;SDS011;480;48.124;11.578;2022-08-30T05:26:11;7.30;;;6.60;;
982;SDS011;480;48.124;11.578;2022-08-30T05:28:40;8.70;;;7.77;;
982;SDS011;480;48.124;11.578;2022-08-30T05:31:11;7.10;;;6.40;;
982;SDS011;480;48.124;11.578;2022-08-30T05:33:41;8.33;;;7.57;;
982;SDS011;480;48.124;11.578;2022-08-30T05:36:09;8.10;;;7.33;;
982;SDS011;480;48.124;11.578;2022-08-30T05:38:37;7.10;;;6.50;;
982;SDS011;480;48.124;11.578;2022-08-30T05:41:04;8.07;;;7.27;;
982;SDS011;480;48.124;11.578;2022-08-30T05:43:33;7.30;;;6.60;;
982;SDS011;480;48.124;11.578;2022-08-30T05:46:00;6.00;;;5.40;;
982;SDS011;480;48.124;11.578;2022-08-30T05:48:29;7.87;;;7.07;;
982;SDS011;480;48.124;11.578;2022-08-30T05:51:00;8.07;;;6.90;;
982;SDS011;480;48.124;11.578;2022-08-30T05:53:31;7.50;;;6.67;;
982;SDS011;480;48.124;11.578;2022-08-30T05:55:59;8.67;;;7.03;;
982;SDS011;480;48.124;11.578;2022-08-30T05:58:27;7.37;;;5.97;;
982;SDS011;480;48.124;11.578;2022-08-30T06:00:55;6.73;;;5.70;;
982;SDS011;480;48.124;11.578;2022-08-30T06:03:23;7.77;;;6.30;;
982;SDS011;480;48.124;11.578;2022-08-30T06:05:50;9.40;;;6.63;;
982;SDS011;480;48.124;11.578;2022-08-30T06:08:17;6.70;;;6.10;;
982;SDS011;480;48.124;11.578;2022-08-30T06:10:45;8.43;;;6.37;;
982;SDS011;480;48.124;11.578;2022-08-30T06:13:12;6.67;;;6.00;;
982;SDS011;480;48.124;11.578;2022-08-30T06:15:39;8.00;;;6.63;;
982;SDS011;480;48.124;11.578;2022-08-30T06:18:09;6.80;;;6.20;;
982;SDS011;480;48.124;11.578;2022-08-30T06:20:38;6.87;;;6.27;;
982;SDS011;480;48.124;11.578;2022-08-30T06:23:07;6.00;;;5.50;;
982;SDS011;480;48.124;11.578;2022-08-30T06:25:34;6.53;;;6.00;;
982;SDS011;480;48.124;11.578;2022-08-30T06:28:02;6.60;;;6.00;;
982;SDS011;480;48.124;11.578;2022-08-30T06:30:30;6.70;;;6.10;;
982;SDS011;480;48.124;11.578;2022-08-30T06:32:58;7.20;;;6.60;;
982;SDS011;480;48.124;11.578;2022-08-30T06:35:27;7.40;;;6.70;;
982;SDS011;480;48.124;11.578;2022-08-30T06:37:57;7.37;;;6.17;;
982;SDS011;480;48.124;11.578;2022-08-30T06:40:24;6.70;;;6.10;;
982;SDS011;480;48.124;11.578;2022-08-30T06:42:51;6.83;;;6.13;;
982;SDS011;480;48.124;11.578;2022-08-30T06:45:18;7.37;;;6.63;;
982;SDS011;480;48.124;11.578;2022-08-30T06:47:46;6.03;;;5.53;;
982;SDS011;480;48.124;11.578;2022-08-30T06:50:14;7.53;;;6.87;;
982;SDS011;480;48.124;11.578;2022-08-30T06:52:44;6.90;;;6.30;;
982;SDS011;480;48.124;11.578;2022-08-30T06:55:12;7.83;;;6.83;;
982;SDS011;480;48.124;11.578;2022-08-30T06:57:41;6.97;;;6.23;;
982;SDS011;480;48.124;11.578;2022-08-30T07:00:09;7.93;;;6.83;;
982;SDS011;480;48.124;11.578;2022-08-30T07:02:38;8.03;;;6.60;;
982;SDS011;480;48.124;11.578;2022-08-30T07:05:06;7.50;;;6.67;;
982;SDS011;480;48.124;11.578;2022-08-30T07:07:35;8.40;;;7.00;;
982;SDS011;480;48.124;11.578;2022-08-30T07:10:04;6.83;;;5.77;;
982;SDS011;480;48.124;11.578;2022-08-30T07:12:33;8.90;;;6.23;;
982;SDS011;480;48.124;11.578;2022-08-30T07:15:00;6.33;;;5.80;;
982;SDS011;480;48.124;11.578;2022-08-30T07:17:29;8.50;;;7.57;;
982;SDS011;480;48.124;11.578;2022-08-30T07:20:13;8.23;;;7.10;;
982;SDS011;480;48.124;11.578;2022-08-30T07:22:42;7.23;;;6.53;;
982;SDS011;480;48.124;11.578;2022-08-30T07:25:11;7.57;;;6.70;;
982;SDS011;480;48.124;11.578;2022-08-30T07:27:38;8.23;;;6.53;;
982;SDS011;480;48.124;11.578;2022-08-30T07:30:06;7.43;;;6.83;;
982;SDS011;480;48.124;11.578;2022-08-30T07:32:34;8.00;;;7.20;;
982;SDS011;480;48.124;11.578;2022-08-30T07:35:02;7.53;;;6.70;;
982;SDS011;480;48.124;11.578;2022-08-30T07:37:30;8.00;;;7.30;;
982;SDS011;480;48.124;11.578;2022-08-30T07:39:57;8.27;;;6.93;;
982;SDS011;480;48.124;11.578;2022-08-30T07:42:25;8.00;;;7.10;;
982;SDS011;480;48.124;11.578;2022-08-30T07:44:52;8.70;;;7.87;;
982;SDS011;480;48.124;11.578;2022-08-30T07:47:19;6.70;;;6.03;;
982;SDS011;480;48.124;11.578;2022-08-30T07:49:46;9.03;;;8.20;;
982;SDS011;480;48.124;11.578;2022-08-30T07:52:13;6.67;;;6.07;;
982;SDS011;480;48.124;11.578;2022-08-30T07:54:40;8.10;;;6.87;;
982;SDS011;480;48.124;11.578;2022-08-30T07:57:08;8.60;;;7.80;;
982;SDS011;480;48.124;11.578;2022-08-30T07:59:36;7.90;;;6.87;;
982;SDS011;480;48.124;11.578;2022-08-30T08:02:03;7.80;;;7.00;;
982;SDS011;480;48.124;11.578;2022-08-30T08:04:31;8.23;;;7.43;;
982;SDS011;480;48.124;11.578;2022-08-30T08:06:59;8.53;;;7.30;;
982;SDS011;480;48.124;11.578;2022-08-30T08:09:26;7.10;;;6.50;;
982;SDS011;480;48.124;11.578;2022-08-30T08:11:53;10.60;;;7.20;;
982;SDS011;480;48.124;11.578;2022-08-30T08:14:21;7.40;;;6.70;;
982;SDS011;480;48.124;11.578;2022-08-30T08:16:49;7.30;;;6.60;;
982;SDS011;480;48.124;11.578;2022-08-30T08:19:16;8.20;;;7.40;;
982;SDS011;480;48.124;11.578;2022-08-30T08:21:44;7.73;;;7.07;;
982;SDS011;480;48.124;11.578;2022-08-30T08:24:11;6.63;;;5.83;;
982;SDS011;480;48.124;11.578;2022-08-30T08:26:39;8.03;;;6.83;;
982;SDS011;480;48.124;11.578;2022-08-30T08:29:07;12.53;;;7.47;;
982;SDS011;480;48.124;11.578;2022-08-30T08:31:35;6.50;;;5.90;;
982;SDS011;480;48.124;11.578;2022-08-30T08:34:04;7.97;;;7.00;;
982;SDS011;480;48.124;11.578;2022-08-30T08:36:35;7.23;;;6.63;;
982;SDS011;480;48.124;11.578;2022-08-30T08:39:03;7.40;;;6.70;;
982;SDS011;480;48.124;11.578;2022-08-30T08:41:35;7.90;;;7.10;;
982;SDS011;480;48.124;11.578;2022-08-30T08:44:12;7.20;;;6.50;;
982;SDS011;480;48.124;11.578;2022-08-30T08:46:48;7.93;;;7.23;;
982;SDS011;480;48.124;11.578;2022-08-30T08:49:23;7.77;;;6.97;;
982;SDS011;480;48.124;11.578;2022-08-30T08:51:50;8.37;;;7.03;;
982;SDS011;480;48.124;11.578;2022-08-30T08:54:38;6.70;;;6.20;;
982;SDS011;480;48.124;11.578;2022-08-30T08:57:10;7.40;;;6.70;;
982;SDS011;480;48.124;11.578;2022-08-30T08:59:38;6.37;;;5.77;;
982;SDS011;480;48.124;11.578;2022-08-30T09:02:08;6.80;;;6.10;;
982;SDS011;480;48.124;11.578;2022-08-30T09:04:46;6.20;;;5.60;;
982;SDS011;480;48.124;11.578;2022-08-30T09:07:17;7.80;;;7.20;;
982;SDS011;480;48.124;11.578;2022-08-30T09:09:48;7.13;;;6.43;;
982;SDS011;480;48.124;11.578;2022-08-30T09:12:15;5.33;;;4.73;;
982;SDS011;480;48.124;11.578;2022-08-30T09:14:43;7.20;;;6.50;;
982;SDS011;480;48.124;11.578;2022-08-30T09:17:16;6.50;;;5.90;;
982;SDS011;480;48.124;11.578;2022-08-30T09:19:55;6.03;;;5.43;;
982;SDS011;480;48.124;11.578;2022-08-30T09:22:25;9.20;;;5.90;;
982;SDS011;480;48.124;11.578;2022-08-30T09:24:59;6.33;;;5.73;;
982;SDS011;480;48.124;11.578;2022-08-30T09:27:29;6.80;;;6.27;;
982;SDS011;480;48.124;11.578;2022-08-30T09:30:01;5.70;;;5.20;;
982;SDS011;480;48.124;11.578;2022-08-30T09:32:32;5.80;;;5.30;;
982;SDS011;480;48.124;11.578;2022-08-30T09:35:04;6.00;;;5.30;;
982;SDS011;480;48.124;11.578;2022-08-30T09:37:36;6.17;;;5.50;;
982;SDS011;480;48.124;11.578;2022-08-30T09:40:09;5.70;;;5.17;;
982;SDS011;480;48.124;11.578;2022-08-30T09:45:33;5.77;;;5.30;;
982;SDS011;480;48.124;11.578;2022-08-30T09:51:01;6.30;;;5.70;;
982;SDS011;480;48.124;11.578;2022-08-30T09:53:42;6.70;;;6.10;;
982;SDS011;480;48.124;11.578;2022-08-30T09:56:17;6.40;;;5.80;;
982;SDS011;480;48.124;11.578;2022-08-30T09:58:54;5.37;;;4.97;;
982;SDS011;480;48.124;11.578;2022-08-30T10:01:29;5.93;;;5.47;;
982;SDS011;480;48.124;11.578;2022-08-30T10:04:00;4.77;;;4.37;;
982;SDS011;480;48.124;11.578;2022-08-30T10:06:35;7.47;;;5.83;;
982;SDS011;480;48.124;11.578;2022-08-30T10:09:13;6.30;;;5.67;;
982;SDS011;480;48.124;11.578;2022-08-30T10:11:48;8.70;;;5.00;;
982;SDS011;480;48.124;11.578;2022-08-30T10:14:31;5.83;;;5.27;;
982;SDS011;480;48.124;11.578;2022-08-30T10:17:12;5.60;;;5.10;;
982;SDS011;480;48.124;11.578;2022-08-30T10:19:50;6.87;;;6.27;;
982;SDS011;480;48.124;11.578;2022-08-30T10:22:29;6.20;;;5.70;;
982;SDS011;480;48.124;11.578;2022-08-30T10:25:00;6.33;;;5.83;;
982;SDS011;480;48.124;11.578;2022-08-30T10:27:33;5.70;;;5.10;;
982;SDS011;480;48.124;11.578;2022-08-30T10:30:05;5.73;;;5.13;;
982;SDS011;480;48.124;11.578;2022-08-30T10:32:35;4.73;;;4.20;;
982;SDS011;480;48.124;11.578;2022-08-30T10:35:09;4.97;;;4.57;;
982;SDS011;480;48.124;11.578;2022-08-30T10:37:41;6.57;;;5.97;;
982;SDS011;480;48.124;11.578;2022-08-30T10:40:14;5.93;;;5.50;;
982;SDS011;480;48.124;11.578;2022-08-30T10:43:01;5.13;;;4.73;;
982;SDS011;480;48.124;11.578;2022-08-30T10:45:34;5.40;;;5.00;;
982;SDS011;480;48.124;11.578;2022-08-30T10:48:06;5.80;;;5.40;;
982;SDS011;480;48.124;11.578;2022-08-30T10:50:40;5.77;;;5.27;;
982;SDS011;480;48.124;11.578;2022-08-30T10:53:13;6.03;;;5.47;;
982;SDS011;480;48.124;11.578;2022-08-30T10:55:44;5.40;;;4.87;;
982;SDS011;480;48.124;11.578;2022-08-30T10:58:15;6.30;;;5.90;;
982;SDS011;480;48.124;11.578;2022-08-30T11:00:45;6.37;;;5.90;;
982;SDS011;480;48.124;11.578;2022-08-30T11:03:46;5.07;;;4.67;;
982;SDS011;480;48.124;11.578;2022-08-30T11:06:44;5.70;;;5.20;;
982;SDS011;480;48.124;11.578;2022-08-30T11:09:21;5.43;;;4.67;;
982;SDS011;480;48.124;11.578;2022-08-30T11:14:47;5.03;;;4.60;;
982;SDS011;480;48.124;11.578;2022-08-30T11:17:22;5.83;;;5.23;;
982;SDS011;480;48.124;11.578;2022-08-30T11:19:52;5.23;;;4.77;;
982;SDS011;480;48.124;11.578;2022-08-30T11:22:22;5.40;;;5.00;;
982;SDS011;480;48.124;11.578;2022-08-30T11:27:44;6.83;;;6.23;;
982;SDS011;480;48.124;11.578;2022-08-30T11:36:08;4.60;;;4.27;;
982;SDS011;480;48.124;11.578;2022-08-30T11:38:59;5.33;;;4.57;;
982;SDS011;480;48.124;11.578;2022-08-30T11:41:32;5.97;;;5.40;;
982;SDS011;480;48.124;11.578;2022-08-30T11:44:13;5.30;;;4.90;;
982;SDS011;480;48.124;11.578;2022-08-30T11:46:56;5.37;;;4.87;;
982;SDS011;480;48.124;11.578;2022-08-30T11:55:17;10.57;;;5.37;;
982;SDS011;480;48.124;11.578;2022-08-30T12:04:03;5.67;;;5.27;;
982;SDS011;480;48.124;11.578;2022-08-30T12:06:44;5.63;;;5.10;;
982;SDS011;480;48.124;11.578;2022-08-30T12:18:21;5.50;;;5.10;;
982;SDS011;480;48.124;11.578;2022-08-30T12:20:52;4.77;;;4.33;;
982;SDS011;480;48.124;11.578;2022-08-30T12:23:23;5.50;;;5.00;;
982;SDS011;480;48.124;11.578;2022-08-30T12:26:08;5.53;;;5.00;;
982;SDS011;480;48.124;11.578;2022-08-30T12:28:37;5.40;;;5.00;;
982;SDS011;480;48.124;11.578;2022-08-30T12:31:08;5.67;;;5.27;;
982;SDS011;480;48.124;11.578;2022-08-30T12:33:39;5.87;;;5.00;;
982;SDS011;480;48.124;11.578;2022-08-30T12:36:12;5.57;;;5.00;;
982;SDS011;480;48.124;11.578;2022-08-30T12:38:41;4.90;;;4.50;;
982;SDS011;480;48.124;11.578;2022-08-30T12:41:15;4.77;;;4.43;;
982;SDS011;480;48.124;11.578;2022-08-30T12:43:47;5.80;;;5.07;;
982;SDS011;480;48.124;11.578;2022-08-30T12:46:19;5.50;;;5.00;;
982;SDS011;480;48.124;11.578;2022-08-30T12:48:47;6.80;;;4.80;;
982;SDS011;480;48.124;11.578;2022-08-30T12:51:29;5.20;;;4.70;;
982;SDS011;480;48.124;11.578;2022-08-30T12:54:02;5.90;;;5.10;;
982;SDS011;480;48.124;11.578;2022-08-30T12:56:45;5.30;;;4.90;;
982;SDS011;480;48.124;11.578;2022-08-30T13:02:16;5.37;;;4.90;;
982;SDS011;480;48.124;11.578;2022-08-30T13:04:45;5.53;;;5.03;;
982;SDS011;480;48.124;11.578;2022-08-30T13:07:27;5.37;;;4.87;;
982;SDS011;480;48.124;11.578;2022-08-30T13:10:05;5.80;;;5.23;;
982;SDS011;480;48.124;11.578;2022-08-30T13:12:56;5.97;;;5.20;;
982;SDS011;480;48.124;11.578;2022-08-30T13:15:29;6.07;;;5.57;;
982;SDS011;480;48.124;11.578;2022-08-30T13:18:15;6.07;;;5.50;;
982;SDS011;480;48.124;11.578;2022-08-30T13:20:44;8.40;;;6.30;;
982;SDS011;480;48.124;11.578;2022-08-30T13:23:19;5.80;;;5.30;;
982;SDS011;480;48.124;11.578;2022-08-30T13:25:48;5.40;;;4.93;;
982;SDS011;480;48.124;11.578;2022-08-30T13:28:16;5.73;;;5.23;;
982;SDS011;480;48.124;11.578;2022-08-30T13:30:45;5.50;;;5.00;;
982;SDS011;480;48.124;11.578;2022-08-30T13:33:13;4.87;;;4.50;;
982;SDS011;480;48.124;11.578;2022-08-30T13:35:40;6.30;;;5.80;;
982;SDS011;480;48.124;11.578;2022-08-30T13:38:07;5.87;;;5.27;;
982;SDS011;480;48.124;11.578;2022-08-30T13:40:34;6.10;;;5.70;;
982;SDS011;480;48.124;11.578;2022-08-30T13:43:01;5.23;;;4.83;;
982;SDS011;480;48.124;11.578;2022-08-30T13:45:29;4.83;;;4.43;;
982;SDS011;480;48.124;11.578;2022-08-30T13:47:56;6.03;;;5.63;;
982;SDS011;480;48.124;11.578;2022-08-30T13:50:24;5.30;;;4.80;;
982;SDS011;480;48.124;11.578;2022-08-30T13:52:51;5.63;;;5.13;;
982;SDS011;480;48.124;11.578;2022-08-30T13:55:18;5.33;;;4.93;;
982;SDS011;480;48.124;11.578;2022-08-30T13:57:45;6.30;;;5.10;;
982;SDS011;480;48.124;11.578;2022-08-30T14:00:13;5.53;;;5.13;;
982;SDS011;480;48.124;11.578;2022-08-30T14:02:43;5.80;;;5.30;;
982;SDS011;480;48.124;11.578;2022-08-30T14:05:10;6.33;;;5.83;;
982;SDS011;480;48.124;11.578;2022-08-30T14:07:41;5.30;;;4.93;;
982;SDS011;480;48.124;11.578;2022-08-30T14:10:08;4.53;;;4.23;;
982;SDS011;480;48.124;11.578;2022-08-30T14:12:35;6.00;;;5.50;;
982;SDS011;480;48.124;11.578;2022-08-30T14:15:03;5.53;;;5.10;;
982;SDS011;480;48.124;11.578;2022-08-30T14:17:30;5.07;;;4.67;;
982;SDS011;480;48.124;11.578;2022-08-30T14:19:59;4.97;;;4.57;;
982;SDS011;480;48.124;11.578;2022-08-30T14:22:28;5.27;;;4.87;;
982;SDS011;480;48.124;11.578;2022-08-30T14:24:56;5.37;;;4.97;;
982;SDS011;480;48.124;11.578;2022-08-30T14:27:25;4.93;;;4.53;;
982;SDS011;480;48.124;11.578;2022-08-30T14:29:52;5.83;;;5.33;;
982;SDS011;480;48.124;11.578;2022-08-30T14:32:21;4.83;;;4.43;;
982;SDS011;480;48.124;11.578;2022-08-30T14:34:50;5.60;;;5.00;;
982;SDS011;480;48.124;11.578;2022-08-30T14:37:17;7.03;;;6.43;;
982;SDS011;480;48.124;11.578;2022-08-30T14:39:45;6.17;;;5.57;;
982;SDS011;480;48.124;11.578;2022-08-30T14:42:13;5.30;;;4.87;;
982;SDS011;480;48.124;11.578;2022-08-30T14:44:41;8.13;;;6.27;;
982;SDS011;480;48.124;11.578;2022-08-30T14:47:08;4.90;;;4.50;;
982;SDS011;480;48.124;11.578;2022-08-30T14:49:35;7.00;;;5.13;;
982;SDS011;480;48.124;11.578;2022-08-30T14:52:02;5.47;;;5.00;;
982;SDS011;480;48.124;11.578;2022-08-30T14:54:29;4.70;;;4.30;;
982;SDS011;480;48.124;11.578;2022-08-30T14:56:58;7.13;;;4.43;;
982;SDS011;480;48.124;11.578;2022-08-30T14:59:27;5.43;;;4.93;;
982;SDS011;480;48.124;11.578;2022-08-30T15:01:54;6.27;;;5.67;;
982;SDS011;480;48.124;11.578;2022-08-30T15:04:21;4.03;;;3.73;;
982;SDS011;480;48.124;11.578;2022-08-30T15:06:48;5.63;;;4.57;;
982;SDS011;480;48.124;11.578;2022-08-30T15:09:16;4.53;;;4.23;;
982;SDS011;480;48.124;11.578;2022-08-30T15:11:46;5.63;;;5.13;;
982;SDS011;480;48.124;11.578;2022-08-30T15:14:15;5.40;;;4.70;;
982;SDS011;480;48.124;11.578;2022-08-30T15:16:43;6.07;;;5.57;;
982;SDS011;480;48.124;11.578;2022-08-30T15:19:10;5.67;;;4.90;;
982;SDS011;480;48.124;11.578;2022-08-30T15:21:39;4.60;;;4.20;;
982;SDS011;480;48.124;11.578;2022-08-30T15:24:09;4.57;;;4.17;;
982;SDS011;480;48.124;11.578;2022-08-30T15:26:38;4.97;;;4.57;;
982;SDS011;480;48.124;11.578;2022-08-30T15:29:07;4.80;;;4.30;;
982;SDS011;480;48.124;11.578;2022-08-30T15:31:35;4.10;;;3.80;;
982;SDS011;480;48.124;11.578;2022-08-30T15:34:06;6.10;;;4.00;;
982;SDS011;480;48.124;11.578;2022-08-30T15:36:34;4.50;;;4.20;;
982;SDS011;480;48.124;11.578;2022-08-30T15:39:02;5.30;;;4.90;;
982;SDS011;480;48.124;11.578;2022-08-30T15:41:30;3.73;;;3.47;;
982;SDS011;480;48.124;11.578;2022-08-30T15:43:59;4.73;;;4.33;;
982;SDS011;480;48.124;11.578;2022-08-30T15:46:27;4.70;;;4.40;;
982;SDS011;480;48.124;11.578;2022-08-30T15:48:59;5.33;;;4.83;;
982;SDS011;480;48.124;11.578;2022-08-30T15:51:30;6.33;;;4.43;;
982;SDS011;480;48.124;11.578;2022-08-30T15:53:58;4.37;;;4.07;;
982;SDS011;480;48.124;11.578;2022-08-30T15:56:25;6.60;;;4.43;;
982;SDS011;480;48.124;11.578;2022-08-30T15:58:52;5.40;;;4.73;;
982;SDS011;480;48.124;11.578;2022-08-30T16:01:19;5.07;;;4.63;;
982;SDS011;480;48.124;11.578;2022-08-30T16:03:46;5.47;;;4.97;;
982;SDS011;480;48.124;11.578;2022-08-30T16:06:14;4.67;;;4.20;;
982;SDS011;480;48.124;11.578;2022-08-30T16:08:45;6.33;;;5.67;;
982;SDS011;480;48.124;11.578;2022-08-30T16:11:14;4.90;;;4.40;;
982;SDS011;480;48.124;11.578;2022-08-30T16:13:43;5.67;;;5.10;;
982;SDS011;480;48.124;11.578;2022-08-30T16:16:11;5.00;;;4.60;;
982;SDS011;480;48.124;11.578;2022-08-30T16:18:38;4.37;;;4.03;;
982;SDS011;480;48.124;11.578;2022-08-30T16:21:07;5.97;;;5.53;;
982;SDS011;480;48.124;11.578;2022-08-30T16:23:36;9.77;;;5.90;;
982;SDS011;480;48.124;11.578;2022-08-30T16:26:06;6.40;;;5.90;;